createdAt,value
2023-04-01T00:01:06.131Z,9.88
2023-04-01T00:03:36.494Z,9.85
2023-04-01T00:06:05.756Z,9.82
2023-04-01T00:08:33.909Z,9.79
2023-04-01T00:11:02.304Z,9.77
2023-04-01T00:13:31.416Z,9.74
2023-04-01T00:16:00.203Z,9.71
2023-04-01T00:18:28.628Z,9.70
2023-04-01T00:20:56.767Z,9.66
2023-04-01T00:23:26.566Z,9.64
2023-04-01T00:25:54.459Z,9.60
2023-04-01T00:28:22.756Z,9.57
2023-04-01T00:30:51.091Z,9.53
2023-04-01T00:33:21.401Z,9.49
2023-04-01T00:36:28.072Z,9.46
2023-04-01T00:39:00.125Z,9.42
2023-04-01T00:41:29.415Z,9.40
2023-04-01T00:44:19.424Z,9.38
2023-04-01T00:46:48.605Z,9.33
2023-04-01T00:49:18.095Z,9.28
2023-04-01T00:51:48.984Z,9.25
2023-04-01T00:54:17.356Z,9.18
2023-04-01T00:57:00.512Z,9.07
2023-04-01T00:59:31.748Z,8.98
2023-04-01T01:02:01.255Z,8.95
2023-04-01T01:04:31.284Z,8.95
2023-04-01T01:07:05.630Z,8.93
2023-04-01T01:10:05.238Z,8.91
2023-04-01T01:13:06.971Z,8.92
2023-04-01T01:15:48.434Z,8.92
2023-04-01T01:18:16.425Z,8.94
2023-04-01T01:21:22.670Z,8.97
2023-04-01T01:24:17.496Z,9.01
2023-04-01T01:27:01.864Z,9.03
2023-04-01T01:29:58.466Z,9.07
2023-04-01T01:33:00.695Z,9.11
2023-04-01T01:35:41.373Z,9.12
2023-04-01T01:38:18.230Z,9.10
2023-04-01T01:40:54.917Z,9.08
2023-04-01T01:43:27.633Z,9.05
2023-04-01T01:45:58.498Z,9.04
2023-04-01T01:48:28.290Z,9.04
2023-04-01T01:50:57.131Z,9.03
2023-04-01T01:53:25.417Z,9.02
2023-04-01T01:55:56.281Z,9.01
2023-04-01T01:58:26.737Z,9.00
2023-04-01T02:01:04.318Z,8.98
2023-04-01T02:03:35.697Z,8.97
2023-04-01T02:06:04.468Z,8.94
2023-04-01T02:08:37.633Z,8.89
2023-04-01T02:11:10.922Z,8.83
2023-04-01T02:13:46.923Z,8.82
2023-04-01T02:16:30.992Z,8.82
2023-04-01T02:19:00.598Z,8.82
2023-04-01T02:21:32.414Z,8.82
2023-04-01T02:24:01.803Z,8.83
2023-04-01T02:26:33.671Z,8.83
2023-04-01T02:29:01.741Z,8.84
2023-04-01T02:31:30.400Z,8.87
2023-04-01T02:33:59.017Z,8.89
2023-04-01T02:36:27.291Z,8.89
2023-04-01T02:38:56.328Z,8.89
2023-04-01T02:41:24.291Z,8.89
2023-04-01T02:43:53.092Z,8.90
2023-04-01T02:46:21.215Z,8.91
2023-04-01T02:48:49.497Z,8.91
2023-04-01T02:51:18.578Z,8.91
2023-04-01T02:53:46.973Z,8.93
2023-04-01T02:56:16.374Z,8.94
2023-04-01T02:58:45.074Z,8.95
2023-04-01T03:01:13.265Z,8.97
2023-04-01T03:03:41.507Z,8.97
2023-04-01T03:06:12.561Z,8.97
2023-04-01T03:08:41.045Z,8.97
2023-04-01T03:11:10.956Z,8.99
2023-04-01T03:13:45.034Z,9.00
2023-04-01T03:16:14.290Z,9.01
2023-04-01T03:18:42.536Z,9.04
2023-04-01T03:21:19.525Z,9.07
2023-04-01T03:23:47.633Z,9.09
2023-04-01T03:26:16.174Z,9.10
2023-04-01T03:28:44.960Z,9.11
2023-04-01T03:31:14.385Z,9.13
2023-04-01T03:33:46.561Z,9.17
2023-04-01T03:36:15.270Z,9.19
2023-04-01T03:38:46.303Z,9.20
2023-04-01T03:41:18.506Z,9.22
2023-04-01T03:43:47.129Z,9.23
2023-04-01T03:46:20.759Z,9.25
2023-04-01T03:48:48.864Z,9.25
2023-04-01T03:51:17.996Z,9.22
2023-04-01T03:53:50.049Z,9.26
2023-04-01T03:56:18.481Z,9.29
2023-04-01T03:58:48.984Z,9.30
2023-04-01T04:01:19.184Z,9.31
2023-04-01T04:03:56.791Z,9.34
2023-04-01T04:06:26.234Z,9.36
2023-04-01T04:08:54.463Z,9.39
2023-04-01T04:11:23.904Z,9.40
2023-04-01T04:13:58.366Z,9.42
2023-04-01T04:16:27.269Z,9.44
2023-04-01T04:19:00.335Z,9.43
2023-04-01T04:21:28.481Z,9.40
2023-04-01T04:23:57.504Z,9.41
2023-04-01T04:26:30.416Z,9.42
2023-04-01T04:29:01.314Z,9.42
2023-04-01T04:31:29.979Z,9.42
2023-04-01T04:34:01.976Z,9.44
2023-04-01T04:36:31.613Z,9.45
2023-04-01T04:39:03.119Z,9.47
2023-04-01T04:41:31.981Z,9.46
2023-04-01T04:44:03.106Z,9.45
2023-04-01T04:46:31.655Z,9.43
2023-04-01T04:49:07.235Z,9.42
2023-04-01T04:51:39.322Z,9.43
2023-04-01T04:54:08.196Z,9.44
2023-04-01T04:56:53.741Z,9.43
2023-04-01T04:59:22.364Z,9.42
2023-04-01T05:01:58.005Z,9.40
2023-04-01T05:04:27.211Z,9.38
2023-04-01T05:06:55.484Z,9.40
2023-04-01T05:09:26.335Z,9.39
2023-04-01T05:11:54.809Z,9.39
2023-04-01T05:14:23.689Z,9.40
2023-04-01T05:17:03.409Z,9.36
2023-04-01T05:19:31.717Z,9.33
2023-04-01T05:22:00.801Z,9.31
2023-04-01T05:24:29.392Z,9.32
2023-04-01T05:26:59.002Z,9.32
2023-04-01T05:29:27.326Z,9.27
2023-04-01T05:32:01.536Z,9.18
2023-04-01T05:34:30.909Z,9.12
2023-04-01T05:36:59.118Z,9.07
2023-04-01T05:39:27.711Z,9.02
2023-04-01T05:41:56.337Z,9.00
2023-04-01T05:44:24.423Z,9.00
2023-04-01T05:47:15.932Z,9.02
2023-04-01T05:49:43.815Z,9.01
2023-04-01T05:52:12.447Z,9.02
2023-04-01T05:54:40.849Z,9.05
2023-04-01T05:57:09.476Z,9.08
2023-04-01T05:59:37.800Z,9.10
2023-04-01T06:02:05.954Z,9.11
2023-04-01T06:04:38.489Z,9.15
2023-04-01T06:07:13.091Z,9.19
2023-04-01T06:09:41.809Z,9.20
2023-04-01T06:12:19.800Z,9.19
2023-04-01T06:15:21.964Z,9.20
2023-04-01T06:18:37.133Z,9.21
2023-04-01T06:21:14.841Z,9.22
2023-04-01T06:24:37.905Z,9.20
2023-04-01T06:27:38.347Z,9.19
2023-04-01T06:30:27.205Z,9.16
2023-04-01T06:33:20.560Z,9.14
2023-04-01T06:36:27.078Z,9.14
2023-04-01T06:39:11.067Z,9.10
2023-04-01T06:41:52.072Z,9.04
2023-04-01T06:44:56.249Z,9.00
2023-04-01T06:47:53.627Z,8.98
2023-04-01T06:50:49.132Z,8.96
2023-04-01T06:53:39.185Z,8.98
2023-04-01T06:56:48.049Z,9.02
2023-04-01T06:59:26.654Z,9.06
2023-04-01T07:02:04.985Z,9.11
2023-04-01T07:04:35.843Z,9.19
2023-04-01T07:07:21.288Z,9.24
2023-04-01T07:10:00.263Z,9.24
2023-04-01T07:12:37.523Z,9.23
2023-04-01T07:15:52.947Z,9.23
2023-04-01T07:18:55.680Z,9.24
2023-04-01T07:21:59.016Z,9.23
2023-04-01T07:24:38.162Z,9.20
2023-04-01T07:27:13.877Z,9.16
2023-04-01T07:29:43.436Z,9.15
2023-04-01T07:32:24.972Z,9.18
2023-04-01T07:35:16.505Z,9.23
2023-04-01T07:38:11.503Z,9.26
2023-04-01T07:40:56.360Z,9.27
2023-04-01T07:44:16.240Z,9.26
2023-04-01T07:46:55.577Z,9.21
2023-04-01T07:50:01.838Z,9.14
2023-04-01T07:52:34.017Z,9.10
2023-04-01T07:55:20.141Z,9.03
2023-04-01T07:58:07.432Z,9.00
2023-04-01T08:00:52.345Z,9.02
2023-04-01T08:03:54.600Z,9.02
2023-04-01T08:06:45.547Z,9.01
2023-04-01T08:09:32.598Z,8.98
2023-04-01T08:12:54.117Z,8.96
2023-04-01T08:15:53.749Z,8.95
2023-04-01T08:19:29.642Z,8.97
2023-04-01T08:22:05.726Z,9.02
2023-04-01T08:24:47.917Z,9.06
2023-04-01T08:27:43.115Z,9.13
2023-04-01T08:30:22.651Z,9.19
2023-04-01T08:33:21.181Z,9.25
2023-04-01T08:36:16.169Z,9.34
2023-04-01T08:39:11.807Z,9.45
2023-04-01T08:42:00.938Z,9.54
2023-04-01T08:45:03.252Z,9.61
2023-04-01T08:47:56.730Z,9.65
2023-04-01T08:51:01.242Z,9.66
2023-04-01T08:53:47.896Z,9.65
2023-04-01T08:56:42.179Z,9.64
2023-04-01T08:59:22.627Z,9.65
2023-04-01T09:01:57.645Z,9.69
2023-04-01T09:05:33.474Z,9.78
2023-04-01T09:08:36.822Z,9.86
2023-04-01T09:11:14.312Z,9.92
2023-04-01T09:14:23.965Z,9.97
2023-04-01T09:17:18.136Z,10.03
2023-04-01T09:20:12.313Z,10.09
2023-04-01T09:22:43.889Z,10.17
2023-04-01T09:25:41.097Z,10.26
2023-04-01T09:28:21.923Z,10.40
2023-04-01T09:31:28.998Z,10.57
2023-04-01T09:34:29.404Z,10.77
2023-04-01T09:37:31.644Z,10.88
2023-04-01T09:40:17.012Z,10.90
2023-04-01T09:43:02.279Z,10.91
2023-04-01T09:46:11.324Z,10.98
2023-04-01T09:48:54.918Z,11.11
2023-04-01T09:51:41.481Z,11.22
2023-04-01T09:54:43.004Z,11.28
2023-04-01T09:57:38.983Z,11.28
2023-04-01T10:00:50.130Z,11.31
2023-04-01T10:03:42.549Z,11.33
2023-04-01T10:06:18.863Z,11.34
2023-04-01T10:09:11.756Z,11.39
2023-04-01T10:11:59.009Z,11.44
2023-04-01T10:15:13.034Z,11.43
2023-04-01T10:18:06.233Z,11.47
2023-04-01T10:20:56.722Z,11.46
2023-04-01T10:26:08.580Z,11.52
2023-04-01T10:28:38.783Z,11.59
2023-04-01T10:31:43.454Z,11.57
2023-04-01T10:34:33.402Z,11.54
2023-04-01T10:37:33.964Z,11.52
2023-04-01T10:40:35.922Z,11.56
2023-04-01T10:43:52.359Z,11.65
2023-04-01T10:46:23.133Z,11.74
2023-04-01T10:49:24.343Z,11.83
2023-04-01T10:52:44.151Z,12.02
2023-04-01T10:55:51.827Z,12.18
2023-04-01T10:59:01.930Z,12.21
2023-04-01T11:02:11.950Z,12.30
2023-04-01T11:05:27.378Z,12.40
2023-04-01T11:08:39.668Z,12.41
2023-04-01T11:11:23.124Z,12.42
2023-04-01T11:13:57.047Z,12.52
2023-04-01T11:16:43.778Z,12.73
2023-04-01T11:19:51.466Z,12.99
2023-04-01T11:22:35.221Z,13.32
2023-04-01T11:25:06.511Z,13.52
2023-04-01T11:27:57.584Z,13.70
2023-04-01T11:30:40.848Z,13.77
2023-04-01T11:33:09.218Z,13.83
2023-04-01T11:36:02.372Z,13.90
2023-04-01T11:38:34.526Z,14.03
2023-04-01T11:41:46.233Z,14.22
2023-04-01T11:44:36.421Z,14.40
2023-04-01T11:47:23.144Z,14.59
2023-04-01T11:50:13.435Z,14.84
2023-04-01T11:53:06.460Z,15.12
2023-04-01T11:55:53.769Z,15.30
2023-04-01T11:58:46.588Z,15.57
2023-04-01T12:01:26.606Z,15.79
2023-04-01T12:03:54.814Z,15.89
2023-04-01T12:06:50.715Z,16.02
2023-04-01T12:09:34.233Z,15.99
2023-04-01T12:12:14.253Z,15.65
2023-04-01T12:15:01.049Z,15.26
2023-04-01T12:17:41.662Z,15.08
2023-04-01T12:20:12.859Z,15.20
2023-04-01T12:23:06.327Z,15.60
2023-04-01T12:25:44.060Z,15.97
2023-04-01T12:28:15.581Z,15.87
2023-04-01T12:30:46.578Z,15.60
2023-04-01T12:33:26.809Z,15.34
2023-04-01T12:36:14.033Z,15.11
2023-04-01T12:38:46.436Z,14.97
2023-04-01T12:41:26.492Z,14.92
2023-04-01T12:44:31.436Z,14.97
2023-04-01T12:47:15.135Z,15.09
2023-04-01T12:50:01.626Z,15.14
2023-04-01T12:52:41.909Z,15.17
2023-04-01T12:55:10.068Z,15.20
2023-04-01T12:57:57.193Z,15.16
2023-04-01T13:00:27.900Z,15.19
2023-04-01T13:03:38.670Z,15.28
2023-04-01T13:06:25.356Z,15.35
2023-04-01T13:09:20.124Z,15.13
2023-04-01T13:12:01.063Z,14.86
2023-04-01T13:14:38.775Z,14.67
2023-04-01T13:17:18.998Z,14.55
2023-04-01T13:20:06.435Z,14.52
2023-04-01T13:23:02.304Z,14.51
2023-04-01T13:26:14.469Z,14.50
2023-04-01T13:29:04.561Z,14.50
2023-04-01T13:31:54.760Z,14.59
2023-04-01T13:34:35.112Z,14.67
2023-04-01T13:37:31.961Z,14.69
2023-04-01T13:40:20.481Z,14.65
2023-04-01T13:42:50.082Z,14.63
2023-04-01T13:45:23.681Z,14.68
2023-04-01T13:48:01.616Z,14.73
2023-04-01T13:50:29.977Z,14.77
2023-04-01T13:53:25.771Z,14.84
2023-04-01T13:56:19.257Z,14.89
2023-04-01T13:58:54.737Z,14.91
2023-04-01T14:01:29.854Z,14.99
2023-04-01T14:04:20.841Z,15.07
2023-04-01T14:07:00.154Z,15.19
2023-04-01T14:10:16.180Z,15.28
2023-04-01T14:13:00.152Z,15.39
2023-04-01T14:15:55.539Z,15.41
2023-04-01T14:18:52.151Z,15.48
2023-04-01T14:21:58.022Z,15.53
2023-04-01T14:24:41.134Z,15.51
2023-04-01T14:27:38.190Z,15.45
2023-04-01T14:30:15.458Z,15.32
2023-04-01T14:33:07.411Z,15.14
2023-04-01T14:35:39.329Z,14.99
2023-04-01T14:38:13.808Z,14.87
2023-04-01T14:41:13.006Z,14.76
2023-04-01T14:43:48.075Z,14.66
2023-04-01T14:46:33.596Z,14.50
2023-04-01T14:49:21.794Z,14.34
2023-04-01T14:51:49.879Z,14.23
2023-04-01T14:54:42.168Z,14.11
2023-04-01T14:57:25.223Z,13.97
2023-04-01T14:59:55.006Z,13.85
2023-04-01T15:02:38.487Z,13.79
2023-04-01T15:05:27.328Z,13.73
2023-04-01T15:08:22.006Z,13.70
2023-04-01T15:10:54.956Z,13.68
2023-04-01T15:13:23.320Z,13.68
2023-04-01T15:16:13.133Z,13.69
2023-04-01T15:18:51.366Z,13.70
2023-04-01T15:21:45.032Z,13.70
2023-04-01T15:24:25.575Z,13.69
2023-04-01T15:27:22.727Z,13.63
2023-04-01T15:30:02.191Z,13.59
2023-04-01T15:33:03.730Z,13.51
2023-04-01T15:35:40.916Z,13.36
2023-04-01T15:38:18.545Z,13.22
2023-04-01T15:41:02.779Z,13.08
2023-04-01T15:43:41.821Z,12.90
2023-04-01T15:46:35.021Z,12.75
2023-04-01T15:49:31.586Z,12.61
2023-04-01T15:52:17.482Z,12.50
2023-04-01T15:55:07.540Z,12.40
2023-04-01T15:58:04.356Z,12.35
2023-04-01T16:01:03.436Z,12.41
2023-04-01T16:03:41.973Z,12.61
2023-04-01T16:06:44.945Z,12.82
2023-04-01T16:10:00.199Z,13.02
2023-04-01T16:13:15.083Z,13.14
2023-04-01T16:16:02.714Z,13.21
2023-04-01T16:18:34.441Z,13.16
2023-04-01T16:21:34.168Z,13.16
2023-04-01T16:24:20.390Z,13.14
2023-04-01T16:26:51.185Z,13.06
2023-04-01T16:29:26.010Z,13.01
2023-04-01T16:32:05.798Z,12.97
2023-04-01T16:34:45.714Z,12.90
2023-04-01T16:37:21.261Z,12.79
2023-04-01T16:40:02.501Z,12.70
2023-04-01T16:42:44.326Z,12.66
2023-04-01T16:45:22.567Z,12.64
2023-04-01T16:47:59.109Z,12.63
2023-04-01T16:50:52.795Z,12.59
2023-04-01T16:53:33.506Z,12.52
2023-04-01T16:56:02.465Z,12.43
2023-04-01T16:58:59.617Z,12.34
2023-04-01T17:01:46.763Z,12.26
2023-04-01T17:04:29.663Z,12.23
2023-04-01T17:07:22.612Z,12.20
2023-04-01T17:10:16.013Z,12.16
2023-04-01T17:13:23.437Z,12.15
2023-04-01T17:16:11.728Z,12.13
2023-04-01T17:18:54.031Z,12.11
2023-04-01T17:22:03.008Z,12.10
2023-04-01T17:24:58.896Z,12.09
2023-04-01T17:27:27.583Z,12.06
2023-04-01T17:30:08.082Z,12.04
2023-04-01T17:33:03.869Z,12.02
2023-04-01T17:35:52.852Z,11.99
2023-04-01T17:38:44.047Z,11.94
2023-04-01T17:41:21.835Z,11.86
2023-04-01T17:43:54.553Z,11.75
2023-04-01T17:46:31.980Z,11.62
2023-04-01T17:49:39.675Z,11.57
2023-04-01T17:52:20.872Z,11.54
2023-04-01T17:54:55.136Z,11.48
2023-04-01T17:58:01.878Z,11.40
2023-04-01T18:00:54.155Z,11.37
2023-04-01T18:04:01.753Z,11.28
2023-04-01T18:06:52.911Z,11.15
2023-04-01T18:09:35.022Z,10.98
2023-04-01T18:12:06.387Z,10.85
2023-04-01T18:14:51.396Z,10.76
2023-04-01T18:17:27.064Z,10.65
2023-04-01T18:20:11.399Z,10.55
2023-04-01T18:22:54.786Z,10.48
2023-04-01T18:25:38.423Z,10.42
2023-04-01T18:28:28.860Z,10.39
2023-04-01T18:31:03.315Z,10.35
2023-04-01T18:33:38.516Z,10.32
2023-04-01T18:36:20.707Z,10.29
2023-04-01T18:38:57.272Z,10.23
2023-04-01T18:41:35.946Z,10.18
2023-04-01T18:44:23.329Z,10.15
2023-04-01T18:47:01.265Z,10.14
2023-04-01T18:50:07.421Z,10.15
2023-04-01T18:52:37.873Z,10.21
2023-04-01T18:55:05.881Z,10.26
2023-04-01T18:57:47.338Z,10.30
2023-04-01T19:00:17.337Z,10.34
2023-04-01T19:02:56.450Z,10.40
2023-04-01T19:05:26.178Z,10.45
2023-04-01T19:07:57.447Z,10.46
2023-04-01T19:10:34.968Z,10.52
2023-04-01T19:13:25.501Z,10.58
2023-04-01T19:16:24.826Z,10.62
2023-04-01T19:19:20.473Z,10.68
2023-04-01T19:22:47.121Z,10.73
2023-04-01T19:25:37.783Z,10.78
2023-04-01T19:28:36.113Z,10.81
2023-04-01T19:31:28.274Z,10.85
2023-04-01T19:34:35.911Z,10.89
2023-04-01T19:37:28.682Z,10.93
2023-04-01T19:39:59.640Z,10.97
2023-04-01T19:42:50.164Z,11.02
2023-04-01T19:45:34.037Z,11.07
2023-04-01T19:48:27.799Z,11.11
2023-04-01T19:51:07.967Z,11.15
2023-04-01T19:53:38.949Z,11.17
2023-04-01T19:56:08.878Z,11.17
2023-04-01T19:58:46.485Z,11.15
2023-04-01T20:01:19.840Z,11.16
2023-04-01T20:03:57.624Z,11.16
2023-04-01T20:06:51.842Z,11.17
2023-04-01T20:09:49.427Z,11.18
2023-04-01T20:12:43.697Z,11.18
2023-04-01T20:15:26.194Z,11.20
2023-04-01T20:17:56.670Z,11.22
2023-04-01T20:20:28.296Z,11.21
2023-04-01T20:23:07.574Z,11.18
2023-04-01T20:25:48.840Z,11.14
2023-04-01T20:28:20.544Z,11.08
2023-04-01T20:31:14.633Z,10.98
2023-04-01T20:34:09.317Z,10.86
2023-04-01T20:36:39.752Z,10.74
2023-04-01T20:39:31.811Z,10.65
2023-04-01T20:42:16.121Z,10.57
2023-04-01T20:45:10.211Z,10.51
2023-04-01T20:48:04.843Z,10.49
2023-04-01T20:50:42.891Z,10.44
2023-04-01T20:53:49.268Z,10.41
2023-04-01T20:56:17.271Z,10.38
2023-04-01T20:59:07.406Z,10.33
2023-04-01T21:01:40.280Z,10.28
2023-04-01T21:04:45.783Z,10.23
2023-04-01T21:07:26.932Z,10.18
2023-04-01T21:10:10.503Z,10.12
2023-04-01T21:12:54.330Z,10.08
2023-04-01T21:15:41.046Z,10.01
2023-04-01T21:18:45.413Z,9.94
2023-04-01T21:21:20.016Z,9.86
2023-04-01T21:23:59.382Z,9.78
2023-04-01T21:26:53.859Z,9.72
2023-04-01T21:30:13.553Z,9.65
2023-04-01T21:33:00.970Z,9.64
2023-04-01T21:35:32.011Z,9.60
2023-04-01T21:38:41.815Z,9.55
2023-04-01T21:41:42.306Z,9.53
2023-04-01T21:44:29.060Z,9.49
2023-04-01T21:47:17.517Z,9.48
2023-04-01T21:49:45.987Z,9.49
2023-04-01T21:52:21.592Z,9.50
2023-04-01T21:55:32.355Z,9.52
2023-04-01T21:58:09.736Z,9.55
2023-04-01T22:00:49.172Z,9.54
2023-04-01T22:03:27.389Z,9.56
2023-04-01T22:05:56.451Z,9.56
2023-04-01T22:08:49.652Z,9.54
2023-04-01T22:11:33.644Z,9.58
2023-04-01T22:14:08.861Z,9.58
2023-04-01T22:16:40.999Z,9.61
2023-04-01T22:19:21.201Z,9.67
2023-04-01T22:22:02.147Z,9.71
2023-04-01T22:24:42.795Z,9.71
2023-04-01T22:27:14.703Z,9.71
2023-04-01T22:30:04.686Z,9.73
2023-04-01T22:32:48.321Z,9.75
2023-04-01T22:35:20.266Z,9.74
2023-04-01T22:37:54.545Z,9.75
2023-04-01T22:42:37.362Z,9.71
2023-04-01T22:45:08.692Z,9.63
2023-04-01T22:47:58.432Z,9.54
2023-04-01T22:50:41.616Z,9.43
2023-04-01T22:53:12.750Z,9.35
2023-04-01T22:55:53.232Z,9.26
2023-04-01T22:58:28.386Z,9.19
2023-04-01T23:01:01.434Z,9.13
2023-04-01T23:03:32.912Z,9.07
2023-04-01T23:06:03.407Z,9.02
2023-04-01T23:08:47.459Z,8.99
2023-04-01T23:11:21.483Z,8.96
2023-04-01T23:14:09.103Z,8.93
2023-04-01T23:16:40.159Z,8.87
2023-04-01T23:19:17.494Z,8.82
2023-04-01T23:21:47.837Z,8.81
2023-04-01T23:24:35.786Z,8.79
2023-04-01T23:27:12.765Z,8.77
2023-04-01T23:29:41.160Z,8.75
2023-04-01T23:32:19.416Z,8.71
2023-04-01T23:34:56.453Z,8.68
2023-04-01T23:37:24.725Z,8.63
2023-04-01T23:39:57.637Z,8.58
2023-04-01T23:42:34.290Z,8.54
2023-04-01T23:45:22.948Z,8.50
2023-04-01T23:47:53.498Z,8.44
2023-04-01T23:50:24.095Z,8.41
2023-04-01T23:53:00.436Z,8.40
2023-04-01T23:55:33.301Z,8.39
2023-04-01T23:58:16.379Z,8.41
